Valley View, Pennsylvania
Current Conditions -  °F | °C
As of 9:58 AM on Wednesday 22 Oct 2014 (Local Time) from KMUI Reporting Station
Broken Clouds Broken Clouds  
Wind Chill: 54°   Ceiling: 3200
Heat Index: 54°   Visibility: 10mi
Dew Point: 54°   Wind: 10mph
Humidity: 100%   Direction: 10°N
Pressure: 29.97"   Gusts: NA
Location:  40.65°N, 76.54°W
Report Text: KMUI 221358Z AUTO 01009KT 10SM BKN032 BKN065 12/12 A2997 RMK AO2 RAB1356E1357DZE1356 SLP152 P0001 $
Loading
Personal Weather Stations






























Interactive Weather Map
Tropical Storm Tracking
New forecast layout! Learn more

10-Day Weather Forecast

Advertisements
Track Severe Weather on mobile